PWSweather.com
Personal Weather Stations
Station Observations
STWO1
East Side, Stillwater, OK 74075

East SideStillwater, OK 74075

Lat: 36.1242949, Lon: -97.044042

Elevation: 942

Station Type: Davis VP2

http://stillwaterweather.com

Latest ConditionsUpdated 11:10:00 PM CDT Sunday, Jun 24, 2018
Currently Today's Max Today's Min Today's Average
Temperature 68.3°F20.2°C 79.8°F26.6°C 66.5°F19.2°C 70.2°F21.2°C
Dew Point 65.6°F18.7°C 73.1°F22.8°C 63.0°F17.2°C 66.4°F19.1°C
Winds 1.2 mph NNW1.9 kmh NNW 10.4 mph -16.7 kmh - - 3.1 mph 5.0 kmh
Wind Gusts 2.3 mph3.7 kmh 19.6 mph31.5 kmh - -
Humidity 91% 93% 71% 88%
Pressure 29.78 in1008.5 mb 29.96 in1014.6 mb 29.64 in1003.7 mb -
Precipitation - 2.09 in53.1 mm - -
Hour Temp Dew Point Humidity Winds Wind Gusts Pressure Precip Precip Rate Daily Precip Total
11:10 PM 68.3°F20.2°C 65.6°F18.7°C 91% 1.2 mph NNW1.9 kmh NNW 2.3 mph3.7 kmh 29.78 in1008.5 mb - 0.00 in0.0 mm 2.09 in53.1 mm
11:00 PM 68.4°F20.2°C 65.7°F18.7°C 91% Calm Calm -- 29.79 in1008.8 mb - 0.00 in0.0 mm 2.09 in53.1 mm
10:50 PM 68.5°F20.3°C 65.8°F18.8°C 91% 1.2 mph NNW1.9 kmh NNW 3.5 mph5.6 kmh 29.80 in1009.1 mb - 0.00 in0.0 mm 2.09 in53.1 mm
10:40 PM 68.7°F20.4°C 66.0°F18.9°C 91% Calm Calm 1.2 mph1.9 kmh 29.81 in1009.5 mb - 0.00 in0.0 mm 2.09 in53.1 mm
10:30 PM 68.8°F20.4°C 65.7°F18.7°C 90% Calm Calm -- 29.81 in1009.5 mb - 0.00 in0.0 mm 2.09 in53.1 mm
10:20 PM 68.9°F20.5°C 65.8°F18.8°C 90% Calm Calm -- 29.81 in1009.5 mb - 0.00 in0.0 mm 2.09 in53.1 mm
10:10 PM 69.0°F20.6°C 66.0°F18.9°C 90% Calm Calm 1.2 mph1.9 kmh 29.82 in1009.8 mb - 0.00 in0.0 mm 2.09 in53.1 mm
10:00 PM 69.2°F20.7°C 66.1°F18.9°C 90% Calm Calm -- 29.82 in1009.8 mb - 0.00 in0.0 mm 2.09 in53.1 mm
09:50 PM 69.2°F20.7°C 65.8°F18.8°C 89% Calm Calm -- 29.82 in1009.8 mb - 0.00 in0.0 mm 2.09 in53.1 mm
09:40 PM 69.4°F20.8°C 65.7°F18.7°C 88% Calm Calm -- 29.81 in1009.5 mb - 0.00 in0.0 mm 2.09 in53.1 mm
09:30 PM 69.9°F21.1°C 66.2°F19.0°C 88% Calm Calm -- 29.81 in1009.5 mb - 0.00 in0.0 mm 2.09 in53.1 mm
09:20 PM 70.3°F21.3°C 66.2°F19.0°C 87% Calm Calm -- 29.81 in1009.5 mb - 0.00 in0.0 mm 2.09 in53.1 mm
09:10 PM 70.7°F21.5°C 66.3°F19.1°C 86% Calm Calm -- 29.81 in1009.5 mb - 0.00 in0.0 mm 2.09 in53.1 mm
09:00 PM 71.2°F21.8°C 66.8°F19.3°C 86% Calm Calm -- 29.82 in1009.8 mb - 0.00 in0.0 mm 2.09 in53.1 mm
08:50 PM 71.5°F21.9°C 66.8°F19.3°C 85% Calm Calm -- 29.82 in1009.8 mb - 0.00 in0.0 mm 2.09 in53.1 mm
08:40 PM 71.9°F22.2°C 67.1°F19.5°C 85% Calm Calm -- 29.82 in1009.8 mb - 0.00 in0.0 mm 2.09 in53.1 mm
08:30 PM 72.0°F22.2°C 66.9°F19.4°C 84% Calm Calm -- 29.82 in1009.8 mb - 0.00 in0.0 mm 2.09 in53.1 mm
08:20 PM 72.2°F22.3°C 67.4°F19.7°C 85% 1.2 mph NNW1.9 kmh NNW 3.5 mph5.6 kmh 29.81 in1009.5 mb - 0.00 in0.0 mm 2.09 in53.1 mm
08:10 PM 72.3°F22.4°C 67.2°F19.6°C 84% Calm Calm 1.2 mph1.9 kmh 29.81 in1009.5 mb - 0.00 in0.0 mm 2.09 in53.1 mm
08:00 PM 72.3°F22.4°C 67.2°F19.6°C 84% 1.2 mph NNW1.9 kmh NNW 3.5 mph5.6 kmh 29.82 in1009.8 mb - 0.00 in0.0 mm 2.09 in53.1 mm
07:50 PM 72.3°F22.4°C 67.2°F19.6°C 84% 1.2 mph NNW1.9 kmh NNW 3.5 mph5.6 kmh 29.81 in1009.5 mb - 0.00 in0.0 mm 2.09 in53.1 mm
07:40 PM 72.3°F22.4°C 67.2°F19.6°C 84% 1.2 mph NNW1.9 kmh NNW 3.5 mph5.6 kmh 29.82 in1009.8 mb - 0.00 in0.0 mm 2.09 in53.1 mm
07:30 PM 72.3°F22.4°C 67.2°F19.6°C 84% Calm Calm 3.5 mph5.6 kmh 29.81 in1009.5 mb - 0.00 in0.0 mm 2.09 in53.1 mm
07:20 PM 72.4°F22.4°C 67.0°F19.4°C 83% 2.3 mph NNW3.7 kmh NNW 3.5 mph5.6 kmh 29.81 in1009.5 mb - 0.00 in0.0 mm 2.09 in53.1 mm
07:10 PM 72.5°F22.5°C 67.0°F19.4°C 83% Calm Calm -- 29.81 in1009.5 mb - 0.00 in0.0 mm 2.09 in53.1 mm
07:00 PM 72.6°F22.6°C 66.8°F19.3°C 82% 1.2 mph NNW1.9 kmh NNW 2.3 mph3.7 kmh 29.80 in1009.1 mb - 0.00 in0.0 mm 2.09 in53.1 mm
06:50 PM 72.5°F22.5°C 66.7°F19.3°C 82% Calm Calm -- 29.80 in1009.1 mb - 0.00 in0.0 mm 2.09 in53.1 mm
06:40 PM 72.3°F22.4°C 66.1°F18.9°C 81% Calm Calm 1.2 mph1.9 kmh 29.79 in1008.8 mb - 0.00 in0.0 mm 2.09 in53.1 mm
06:30 PM 72.3°F22.4°C 66.1°F18.9°C 81% 3.5 mph NNW5.6 kmh NNW 5.8 mph9.3 kmh 29.78 in1008.5 mb - 0.00 in0.0 mm 2.09 in53.1 mm
06:20 PM 72.3°F22.4°C 65.8°F18.8°C 80% 5.8 mph NNW9.3 kmh NNW 10.4 mph16.7 kmh 29.78 in1008.5 mb - 0.00 in0.0 mm 2.09 in53.1 mm
06:10 PM 72.4°F22.4°C 65.9°F18.8°C 80% 3.5 mph N5.6 kmh N 4.6 mph7.4 kmh 29.78 in1008.5 mb - 0.00 in0.0 mm 2.09 in53.1 mm
06:00 PM 72.5°F22.5°C 65.6°F18.7°C 79% 5.8 mph N9.3 kmh N 10.4 mph16.7 kmh 29.78 in1008.5 mb - 0.00 in0.0 mm 2.09 in53.1 mm
05:50 PM 72.5°F22.5°C 65.7°F18.7°C 79% 2.3 mph NNW3.7 kmh NNW 5.8 mph9.3 kmh 29.79 in1008.8 mb - 0.00 in0.0 mm 2.09 in53.1 mm
05:40 PM 72.5°F22.5°C 65.2°F18.4°C 78% 3.5 mph NNE5.6 kmh NNE 6.9 mph11.1 kmh 29.79 in1008.8 mb - 0.00 in0.0 mm 2.09 in53.1 mm
05:30 PM 72.4°F22.4°C 65.1°F18.4°C 78% 1.2 mph NW1.9 kmh NW 4.6 mph7.4 kmh 29.78 in1008.5 mb - 0.00 in0.0 mm 2.09 in53.1 mm
05:20 PM 72.3°F22.4°C 65.1°F18.4°C 78% 3.5 mph NW5.6 kmh NW 5.8 mph9.3 kmh 29.77 in1008.1 mb - 0.00 in0.0 mm 2.09 in53.1 mm
05:10 PM 72.1°F22.3°C 64.9°F18.3°C 78% 8.1 mph NW13.0 kmh NW 11.5 mph18.5 kmh 29.78 in1008.5 mb - 0.00 in0.0 mm 2.09 in53.1 mm
05:00 PM 71.9°F22.2°C 64.7°F18.2°C 78% 8.1 mph NNW13.0 kmh NNW 11.5 mph18.5 kmh 29.73 in1006.8 mb - 0.00 in0.0 mm 2.09 in53.1 mm
04:50 PM 72.1°F22.3°C 64.5°F18.1°C 77% 3.5 mph S5.6 kmh S 3.5 mph5.6 kmh 29.65 in1004.1 mb - 0.00 in0.0 mm 2.09 in53.1 mm
04:40 PM 72.1°F22.3°C 64.5°F18.1°C 77% 4.6 mph SSW7.4 kmh SSW 9.2 mph14.8 kmh 29.64 in1003.7 mb - 0.00 in0.0 mm 2.09 in53.1 mm
04:30 PM 72.2°F22.3°C 64.2°F17.9°C 76% 4.6 mph E7.4 kmh E 9.2 mph14.8 kmh 29.65 in1004.1 mb - 0.00 in0.0 mm 2.09 in53.1 mm
04:20 PM 72.0°F22.2°C 64.0°F17.8°C 76% 3.5 mph E5.6 kmh E 8.1 mph13.0 kmh 29.67 in1004.7 mb - 0.00 in0.0 mm 2.09 in53.1 mm
04:10 PM 71.7°F22.1°C 64.5°F18.1°C 78% 8.1 mph SSE13.0 kmh SSE 16.1 mph25.9 kmh 29.66 in1004.4 mb - 0.00 in0.0 mm 2.09 in53.1 mm
04:00 PM 72.4°F22.4°C 64.0°F17.8°C 75% 3.5 mph SW5.6 kmh SW 10.4 mph16.7 kmh 29.69 in1005.4 mb - 0.00 in0.0 mm 2.09 in53.1 mm
03:50 PM 73.8°F23.2°C 64.2°F17.9°C 72% 5.8 mph S9.3 kmh S 6.9 mph11.1 kmh 29.68 in1005.1 mb - 0.01 in0.3 mm 2.09 in53.1 mm
03:40 PM 73.0°F22.8°C 63.0°F17.2°C 71% 6.9 mph ESE11.1 kmh ESE 8.1 mph13.0 kmh 29.66 in1004.4 mb - 0.01 in0.3 mm 2.09 in53.1 mm
03:30 PM 71.8°F22.1°C 64.6°F18.1°C 78% 8.1 mph SE13.0 kmh SE 16.1 mph25.9 kmh 29.68 in1005.1 mb - 0.02 in0.5 mm 2.09 in53.1 mm
03:20 PM 70.1°F21.2°C 65.4°F18.6°C 85% 3.5 mph SSE5.6 kmh SSE 10.4 mph16.7 kmh 29.73 in1006.8 mb - 0.03 in0.8 mm 2.09 in53.1 mm
03:10 PM 68.3°F20.2°C 65.6°F18.7°C 91% 6.9 mph SE11.1 kmh SE 15.0 mph24.1 kmh 29.73 in1006.8 mb - 0.04 in1.0 mm 2.09 in53.1 mm
03:00 PM 67.9°F19.9°C 65.5°F18.6°C 92% 5.8 mph E9.3 kmh E 15.0 mph24.1 kmh 29.69 in1005.4 mb - 0.05 in1.3 mm 2.09 in53.1 mm
02:50 PM 67.9°F19.9°C 65.8°F18.8°C 93% 6.9 mph SE11.1 kmh SE 13.8 mph22.2 kmh 29.73 in1006.8 mb - 0.10 in2.5 mm 2.08 in52.8 mm
02:40 PM 67.9°F19.9°C 65.8°F18.8°C 93% 8.1 mph SE13.0 kmh SE 10.4 mph16.7 kmh 29.78 in1008.5 mb - 0.11 in2.8 mm 2.08 in52.8 mm
02:30 PM 68.2°F20.1°C 65.8°F18.8°C 92% 5.8 mph SE9.3 kmh SE 9.2 mph14.8 kmh 29.83 in1010.2 mb - 0.10 in2.5 mm 2.07 in52.6 mm
02:20 PM 68.5°F20.3°C 66.1°F18.9°C 92% 6.9 mph SSE11.1 kmh SSE 9.2 mph14.8 kmh 29.87 in1011.5 mb - 0.09 in2.3 mm 2.06 in52.3 mm
02:10 PM 68.5°F20.3°C 66.1°F18.9°C 92% 1.2 mph SE1.9 kmh SE 3.5 mph5.6 kmh 29.89 in1012.2 mb - 0.08 in2.0 mm 2.05 in52.1 mm
02:00 PM 68.8°F20.4°C 66.3°F19.1°C 92% 2.3 mph N3.7 kmh N 3.5 mph5.6 kmh 29.91 in1012.9 mb - 0.07 in1.8 mm 2.04 in51.8 mm
01:50 PM 68.8°F20.4°C 66.4°F19.1°C 92% 1.2 mph N1.9 kmh N 3.5 mph5.6 kmh 29.93 in1013.5 mb - 0.02 in0.5 mm 1.99 in50.5 mm
01:40 PM 68.9°F20.5°C 66.5°F19.2°C 92% 1.2 mph N1.9 kmh N 3.5 mph5.6 kmh 29.90 in1012.5 mb - 0.00 in0.0 mm 1.97 in50.0 mm
01:30 PM 69.0°F20.6°C 66.6°F19.2°C 92% 2.3 mph NNW3.7 kmh NNW 4.6 mph7.4 kmh 29.91 in1012.9 mb - 0.00 in0.0 mm 1.97 in50.0 mm
01:20 PM 69.0°F20.6°C 66.6°F19.2°C 92% 1.2 mph NNW1.9 kmh NNW 3.5 mph5.6 kmh 29.93 in1013.5 mb - 0.00 in0.0 mm 1.97 in50.0 mm
01:10 PM 69.1°F20.6°C 66.7°F19.3°C 92% 6.9 mph N11.1 kmh N 9.2 mph14.8 kmh 29.93 in1013.5 mb - 0.00 in0.0 mm 1.97 in50.0 mm
01:00 PM 69.1°F20.6°C 66.6°F19.2°C 92% 9.2 mph N14.8 kmh N 19.6 mph31.5 kmh 29.96 in1014.6 mb - 0.00 in0.0 mm 1.97 in50.0 mm
12:50 PM 69.2°F20.7°C 66.8°F19.3°C 92% 9.2 mph N14.8 kmh N 15.0 mph24.1 kmh 29.95 in1014.2 mb - 0.00 in0.0 mm 1.97 in50.0 mm
12:40 PM 69.3°F20.7°C 67.2°F19.6°C 93% 8.1 mph NNW13.0 kmh NNW 12.7 mph20.4 kmh 29.94 in1013.9 mb - 0.00 in0.0 mm 1.97 in50.0 mm
12:30 PM 69.3°F20.7°C 67.2°F19.6°C 93% 6.9 mph NNW11.1 kmh NNW 9.2 mph14.8 kmh 29.93 in1013.5 mb - 0.00 in0.0 mm 1.97 in50.0 mm
12:20 PM 69.3°F20.7°C 67.2°F19.6°C 93% 4.6 mph NNW7.4 kmh NNW 11.5 mph18.5 kmh 29.93 in1013.5 mb - 0.01 in0.3 mm 1.97 in50.0 mm
12:10 PM 69.3°F20.7°C 67.2°F19.6°C 93% 3.5 mph N5.6 kmh N 5.8 mph9.3 kmh 29.92 in1013.2 mb - 0.01 in0.3 mm 1.97 in50.0 mm
12:00 PM 69.0°F20.6°C 66.9°F19.4°C 93% 2.3 mph N3.7 kmh N 3.5 mph5.6 kmh 29.90 in1012.5 mb - 0.01 in0.3 mm 1.97 in50.0 mm
11:50 AM 68.8°F20.4°C 66.7°F19.3°C 93% 1.2 mph NNW1.9 kmh NNW 2.3 mph3.7 kmh 29.88 in1011.9 mb - 0.02 in0.5 mm 1.97 in50.0 mm
11:40 AM 68.7°F20.4°C 66.6°F19.2°C 93% 3.5 mph NNW5.6 kmh NNW 3.5 mph5.6 kmh 29.88 in1011.9 mb - 0.02 in0.5 mm 1.97 in50.0 mm
11:30 AM 68.7°F20.4°C 66.6°F19.2°C 93% 3.5 mph N5.6 kmh N 4.6 mph7.4 kmh 29.89 in1012.2 mb - 0.02 in0.5 mm 1.97 in50.0 mm
11:20 AM 68.7°F20.4°C 66.6°F19.2°C 93% 3.5 mph NW5.6 kmh NW 3.5 mph5.6 kmh 29.87 in1011.5 mb - 0.01 in0.3 mm 1.96 in49.8 mm
11:10 AM 68.5°F20.3°C 66.4°F19.1°C 93% Calm Calm -- 29.83 in1010.2 mb - 0.02 in0.5 mm 1.96 in49.8 mm
11:00 AM 68.3°F20.2°C 66.2°F19.0°C 93% Calm Calm -- 29.84 in1010.5 mb - 0.02 in0.5 mm 1.96 in49.8 mm
10:50 AM 68.1°F20.1°C 66.0°F18.9°C 93% Calm Calm 3.5 mph5.6 kmh 29.80 in1009.1 mb - 0.02 in0.5 mm 1.95 in49.5 mm
10:40 AM 68.1°F20.1°C 66.0°F18.9°C 93% 2.3 mph S3.7 kmh S 2.3 mph3.7 kmh 29.80 in1009.1 mb - 0.02 in0.5 mm 1.95 in49.5 mm
10:30 AM 68.1°F20.1°C 65.7°F18.7°C 92% 1.2 mph S1.9 kmh S 4.6 mph7.4 kmh 29.80 in1009.1 mb - 0.03 in0.8 mm 1.95 in49.5 mm
10:20 AM 68.2°F20.1°C 65.8°F18.8°C 92% 1.2 mph SSE1.9 kmh SSE 1.2 mph1.9 kmh 29.79 in1008.8 mb - 0.05 in1.3 mm 1.95 in49.5 mm
10:10 AM 68.1°F20.1°C 65.7°F18.7°C 92% Calm Calm -- 29.80 in1009.1 mb - 0.06 in1.5 mm 1.94 in49.3 mm
10:00 AM 68.1°F20.1°C 65.7°F18.7°C 92% Calm Calm 1.2 mph1.9 kmh 29.79 in1008.8 mb - 0.08 in2.0 mm 1.94 in49.3 mm
09:50 AM 68.2°F20.1°C 65.8°F18.8°C 92% 2.3 mph SE3.7 kmh SE 2.3 mph3.7 kmh 29.76 in1007.8 mb - 0.07 in1.8 mm 1.93 in49.0 mm
09:40 AM 68.3°F20.2°C 65.9°F18.8°C 92% Calm Calm 2.3 mph3.7 kmh 29.75 in1007.5 mb - 0.07 in1.8 mm 1.93 in49.0 mm
09:30 AM 68.4°F20.2°C 66.0°F18.9°C 92% 4.6 mph NW7.4 kmh NW 6.9 mph11.1 kmh 29.76 in1007.8 mb - 0.06 in1.5 mm 1.92 in48.8 mm
09:20 AM 68.3°F20.2°C 65.9°F18.8°C 92% 1.2 mph S1.9 kmh S 3.5 mph5.6 kmh 29.78 in1008.5 mb - 0.04 in1.0 mm 1.90 in48.3 mm
09:10 AM 68.2°F20.1°C 65.8°F18.8°C 92% 1.2 mph S1.9 kmh S 2.3 mph3.7 kmh 29.75 in1007.5 mb - 0.02 in0.5 mm 1.88 in47.8 mm
09:00 AM 68.0°F20.0°C 65.6°F18.7°C 92% Calm Calm -- 29.76 in1007.8 mb - 0.00 in0.0 mm 1.86 in47.2 mm
08:50 AM 68.1°F20.1°C 65.4°F18.6°C 91% 1.2 mph S1.9 kmh S 3.5 mph5.6 kmh 29.74 in1007.1 mb - 0.00 in0.0 mm 1.86 in47.2 mm
08:40 AM 68.1°F20.1°C 65.4°F18.6°C 91% 1.2 mph S1.9 kmh S 2.3 mph3.7 kmh 29.75 in1007.5 mb - 0.00 in0.0 mm 1.86 in47.2 mm
08:30 AM 68.2°F20.1°C 65.5°F18.6°C 91% 1.2 mph S1.9 kmh S 3.5 mph5.6 kmh 29.76 in1007.8 mb - 0.00 in0.0 mm 1.86 in47.2 mm
08:20 AM 68.3°F20.2°C 65.6°F18.7°C 91% 1.2 mph SW1.9 kmh SW 3.5 mph5.6 kmh 29.81 in1009.5 mb - 0.00 in0.0 mm 1.86 in47.2 mm
08:10 AM 68.3°F20.2°C 65.6°F18.7°C 91% 2.3 mph SW3.7 kmh SW 6.9 mph11.1 kmh 29.81 in1009.5 mb - 0.00 in0.0 mm 1.86 in47.2 mm
08:00 AM 68.5°F20.3°C 65.8°F18.8°C 91% 5.8 mph S9.3 kmh S 8.1 mph13.0 kmh 29.80 in1009.1 mb - 0.00 in0.0 mm 1.86 in47.2 mm
07:50 AM 68.4°F20.2°C 65.7°F18.7°C 91% 2.3 mph SSW3.7 kmh SSW 3.5 mph5.6 kmh 29.79 in1008.8 mb - 0.00 in0.0 mm 1.86 in47.2 mm
07:40 AM 68.3°F20.2°C 65.5°F18.6°C 91% 4.6 mph S7.4 kmh S 4.6 mph7.4 kmh 29.76 in1007.8 mb - 0.00 in0.0 mm 1.86 in47.2 mm
07:30 AM 68.1°F20.1°C 65.4°F18.6°C 91% 1.2 mph S1.9 kmh S 4.6 mph7.4 kmh 29.73 in1006.8 mb - 0.00 in0.0 mm 1.86 in47.2 mm
07:20 AM 68.0°F20.0°C 65.6°F18.7°C 92% Calm Calm 2.3 mph3.7 kmh 29.70 in1005.8 mb - 0.00 in0.0 mm 1.86 in47.2 mm
07:10 AM 67.9°F19.9°C 65.4°F18.6°C 92% 4.6 mph S7.4 kmh S 8.1 mph13.0 kmh 29.69 in1005.4 mb - 0.00 in0.0 mm 1.86 in47.2 mm
07:00 AM 67.9°F19.9°C 65.5°F18.6°C 92% 2.3 mph S3.7 kmh S 5.8 mph9.3 kmh 29.66 in1004.4 mb - 0.00 in0.0 mm 1.86 in47.2 mm
06:50 AM 67.9°F19.9°C 65.5°F18.6°C 92% 1.2 mph S1.9 kmh S 3.5 mph5.6 kmh 29.65 in1004.1 mb - 0.01 in0.3 mm 1.86 in47.2 mm
06:40 AM 67.8°F19.9°C 65.4°F18.6°C 92% Calm Calm 2.3 mph3.7 kmh 29.66 in1004.4 mb - 0.01 in0.3 mm 1.86 in47.2 mm
06:30 AM 67.7°F19.8°C 65.3°F18.5°C 92% 3.5 mph E5.6 kmh E 3.5 mph5.6 kmh 29.67 in1004.7 mb - 0.02 in0.5 mm 1.86 in47.2 mm
06:20 AM 67.7°F19.8°C 65.3°F18.5°C 92% 1.2 mph ENE1.9 kmh ENE 4.6 mph7.4 kmh 29.65 in1004.1 mb - 0.03 in0.8 mm 1.86 in47.2 mm
06:10 AM 67.8°F19.9°C 65.4°F18.6°C 92% 3.5 mph NNW5.6 kmh NNW 5.8 mph9.3 kmh 29.67 in1004.7 mb - 0.03 in0.8 mm 1.86 in47.2 mm
06:00 AM 67.8°F19.9°C 65.4°F18.6°C 92% 4.6 mph N7.4 kmh N 9.2 mph14.8 kmh 29.69 in1005.4 mb - 0.04 in1.0 mm 1.86 in47.2 mm
05:50 AM 67.9°F19.9°C 65.5°F18.6°C 92% 3.5 mph N5.6 kmh N 8.1 mph13.0 kmh 29.72 in1006.4 mb - 0.05 in1.3 mm 1.85 in47.0 mm
05:40 AM 67.9°F19.9°C 65.5°F18.6°C 92% 2.3 mph NNW3.7 kmh NNW 8.1 mph13.0 kmh 29.74 in1007.1 mb - 0.06 in1.5 mm 1.85 in47.0 mm
05:30 AM 68.0°F20.0°C 65.6°F18.7°C 92% 2.3 mph N3.7 kmh N 5.8 mph9.3 kmh 29.73 in1006.8 mb - 0.06 in1.5 mm 1.84 in46.7 mm
05:20 AM 68.0°F20.0°C 65.6°F18.7°C 92% 8.1 mph NNW13.0 kmh NNW 12.7 mph20.4 kmh 29.74 in1007.1 mb - 0.07 in1.8 mm 1.83 in46.5 mm
05:10 AM 67.5°F19.7°C 65.1°F18.4°C 92% 9.2 mph NW14.8 kmh NW 18.4 mph29.6 kmh 29.74 in1007.1 mb - 0.11 in2.8 mm 1.83 in46.5 mm
05:00 AM 67.0°F19.4°C 64.6°F18.1°C 92% 9.2 mph NNW14.8 kmh NNW 12.7 mph20.4 kmh 29.72 in1006.4 mb - 0.37 in9.4 mm 1.82 in46.2 mm
04:50 AM 66.9°F19.4°C 64.5°F18.1°C 92% 2.3 mph NNW3.7 kmh NNW 4.6 mph7.4 kmh 29.74 in1007.1 mb - 0.68 in17.3 mm 1.80 in45.7 mm
04:40 AM 66.6°F19.2°C 64.2°F17.9°C 92% Calm Calm 3.5 mph5.6 kmh 29.76 in1007.8 mb - 0.68 in17.3 mm 1.79 in45.5 mm
04:30 AM 66.6°F19.2°C 63.9°F17.7°C 91% 1.2 mph NNW1.9 kmh NNW 1.2 mph1.9 kmh 29.76 in1007.8 mb - 0.68 in17.3 mm 1.79 in45.5 mm
04:20 AM 66.5°F19.2°C 63.8°F17.7°C 91% Calm Calm -- 29.77 in1008.1 mb - 0.65 in16.5 mm 1.76 in44.7 mm
04:10 AM 66.8°F19.3°C 63.8°F17.7°C 90% Calm Calm 2.3 mph3.7 kmh 29.77 in1008.1 mb - 0.62 in15.7 mm 1.73 in43.9 mm
04:00 AM 68.0°F20.0°C 64.6°F18.1°C 89% 5.8 mph W9.3 kmh W 10.4 mph16.7 kmh 29.82 in1009.8 mb - 0.37 in9.4 mm 1.48 in37.6 mm
03:50 AM 70.1°F21.2°C 67.1°F19.5°C 90% 8.1 mph NW13.0 kmh NW 11.5 mph18.5 kmh 29.84 in1010.5 mb - 0.02 in0.5 mm 1.13 in28.7 mm
03:40 AM 70.7°F21.5°C 67.9°F19.9°C 91% 9.2 mph SE14.8 kmh SE 12.7 mph20.4 kmh 29.68 in1005.1 mb - 0.01 in0.3 mm 1.11 in28.2 mm
03:30 AM 71.0°F21.7°C 68.6°F20.3°C 92% 3.5 mph SE5.6 kmh SE 6.9 mph11.1 kmh 29.68 in1005.1 mb - 0.05 in1.3 mm 1.11 in28.2 mm
03:20 AM 70.9°F21.6°C 68.4°F20.2°C 92% 3.5 mph SE5.6 kmh SE 6.9 mph11.1 kmh 29.69 in1005.4 mb - 0.26 in6.6 mm 1.11 in28.2 mm
03:10 AM 70.5°F21.4°C 68.0°F20.0°C 92% 6.9 mph SE11.1 kmh SE 11.5 mph18.5 kmh 29.69 in1005.4 mb - 0.39 in9.9 mm 1.11 in28.2 mm
03:00 AM 70.3°F21.3°C 67.5°F19.7°C 91% 5.8 mph ESE9.3 kmh ESE 9.2 mph14.8 kmh 29.67 in1004.7 mb - 0.68 in17.3 mm 1.11 in28.2 mm
02:50 AM 70.7°F21.5°C 67.9°F19.9°C 91% Calm Calm 2.3 mph3.7 kmh 29.69 in1005.4 mb - 0.83 in21.1 mm 1.11 in28.2 mm
02:40 AM 70.4°F21.3°C 67.6°F19.8°C 91% Calm Calm 1.2 mph1.9 kmh 29.69 in1005.4 mb - 0.94 in23.9 mm 1.10 in27.9 mm
02:30 AM 70.4°F21.3°C 67.6°F19.8°C 91% 2.3 mph SSW3.7 kmh SSW 3.5 mph5.6 kmh 29.69 in1005.4 mb - 1.05 in26.7 mm 1.06 in26.9 mm
02:20 AM 70.4°F21.3°C 67.3°F19.6°C 90% Calm Calm -- 29.69 in1005.4 mb - 0.86 in21.8 mm 0.86 in21.8 mm
02:10 AM 71.2°F21.8°C 68.1°F20.1°C 90% 4.6 mph SSE7.4 kmh SSE 6.9 mph11.1 kmh 29.70 in1005.8 mb - 0.75 in19.1 mm 0.75 in19.1 mm
02:00 AM 71.9°F22.2°C 68.5°F20.3°C 89% 1.2 mph SSW1.9 kmh SSW 3.5 mph5.6 kmh 29.72 in1006.4 mb - 0.45 in11.4 mm 0.45 in11.4 mm
01:50 AM 72.5°F22.5°C 68.7°F20.4°C 88% Calm Calm 3.5 mph5.6 kmh 29.73 in1006.8 mb - 0.29 in7.4 mm 0.29 in7.4 mm
01:40 AM 73.3°F22.9°C 69.2°F20.7°C 87% 1.2 mph SW1.9 kmh SW 2.3 mph3.7 kmh 29.74 in1007.1 mb - 0.17 in4.3 mm 0.17 in4.3 mm
01:30 AM 73.6°F23.1°C 69.1°F20.6°C 86% 3.5 mph S5.6 kmh S 4.6 mph7.4 kmh 29.75 in1007.5 mb - 0.01 in0.3 mm 0.01 in0.3 mm
01:20 AM 74.3°F23.5°C 69.5°F20.8°C 85% 5.8 mph SE9.3 kmh SE 9.2 mph14.8 kmh 29.76 in1007.8 mb - 0.00 in0.0 mm 0.00 in0.0 mm
01:10 AM 75.5°F24.2°C 70.3°F21.3°C 84% 6.9 mph S11.1 kmh S 11.5 mph18.5 kmh 29.74 in1007.1 mb - 0.00 in0.0 mm 0.00 in0.0 mm
01:00 AM 77.4°F25.2°C 72.2°F22.3°C 84% 6.9 mph SE11.1 kmh SE 12.7 mph20.4 kmh 29.73 in1006.8 mb - 0.00 in0.0 mm 0.00 in0.0 mm
12:50 AM 78.4°F25.8°C 72.8°F22.7°C 83% 10.4 mph SSE16.7 kmh SSE 16.1 mph25.9 kmh 29.73 in1006.8 mb - 0.00 in0.0 mm 0.00 in0.0 mm
12:40 AM 79.1°F26.2°C 73.1°F22.8°C 82% 6.9 mph SE11.1 kmh SE 12.7 mph20.4 kmh 29.74 in1007.1 mb - 0.00 in0.0 mm 0.00 in0.0 mm
12:30 AM 79.3°F26.3°C 72.6°F22.6°C 80% 8.1 mph SE13.0 kmh SE 13.8 mph22.2 kmh 29.73 in1006.8 mb - 0.00 in0.0 mm 0.00 in0.0 mm
12:20 AM 79.5°F26.4°C 72.8°F22.7°C 80% 3.5 mph SE5.6 kmh SE 6.9 mph11.1 kmh 29.73 in1006.8 mb - 0.00 in0.0 mm 0.00 in0.0 mm
12:10 AM 79.6°F26.4°C 72.9°F22.7°C 80% 5.8 mph SE9.3 kmh SE 6.9 mph11.1 kmh 29.73 in1006.8 mb - 0.00 in0.0 mm 0.00 in0.0 mm
12:00 AM 79.8°F26.6°C 72.7°F22.6°C 79% 5.8 mph ESE9.3 kmh ESE 8.1 mph13.0 kmh 29.73 in1006.8 mb - 0.00 in0.0 mm 0.00 in0.0 mm